createdAt,value
2019-05-23T00:00:24.114Z,13.60
2019-05-23T00:02:55.200Z,13.60
2019-05-23T00:05:25.683Z,13.60
2019-05-23T00:07:58.318Z,13.60
2019-05-23T00:10:29.165Z,13.50
2019-05-23T00:13:01.915Z,13.50
2019-05-23T00:15:35.443Z,13.40
2019-05-23T00:18:06.357Z,13.40
2019-05-23T00:20:35.686Z,13.40
2019-05-23T00:23:05.366Z,13.40
2019-05-23T00:25:34.131Z,13.30
2019-05-23T00:28:05.896Z,13.30
2019-05-23T00:30:44.165Z,13.30
2019-05-23T00:33:16.009Z,13.30
2019-05-23T00:35:45.684Z,13.30
2019-05-23T00:38:14.509Z,13.20
2019-05-23T00:40:43.654Z,13.30
2019-05-23T00:43:13.074Z,13.30
2019-05-23T00:45:43.518Z,13.30
2019-05-23T00:48:13.493Z,13.20
2019-05-23T00:50:44.873Z,13.20
2019-05-23T00:53:16.036Z,13.20
2019-05-23T00:55:45.905Z,13.20
2019-05-23T00:58:15.435Z,13.20
2019-05-23T01:00:45.991Z,13.20
2019-05-23T01:03:16.634Z,13.30
2019-05-23T01:05:46.423Z,13.20
2019-05-23T01:08:16.796Z,13.30
2019-05-23T01:10:45.544Z,13.30
2019-05-23T01:13:15.372Z,13.40
2019-05-23T01:15:45.062Z,13.30
2019-05-23T01:18:15.812Z,13.40
2019-05-23T01:21:01.155Z,13.40
2019-05-23T01:23:32.686Z,13.50
2019-05-23T01:26:11.579Z,13.50
2019-05-23T01:28:41.088Z,13.50
2019-05-23T01:31:11.847Z,13.60
2019-05-23T01:33:42.145Z,13.60
2019-05-23T01:36:10.978Z,13.70
2019-05-23T01:38:41.522Z,13.70
2019-05-23T01:41:17.351Z,13.70
2019-05-23T01:43:46.474Z,13.70
2019-05-23T01:46:16.421Z,13.80
2019-05-23T01:48:46.942Z,13.70
2019-05-23T01:51:16.631Z,13.80
2019-05-23T01:53:47.184Z,13.70
2019-05-23T01:56:17.107Z,13.70
2019-05-23T01:58:46.234Z,13.80
2019-05-23T02:01:15.854Z,13.80
2019-05-23T02:03:45.272Z,13.80
2019-05-23T02:06:14.562Z,13.90
2019-05-23T02:08:43.465Z,13.90
2019-05-23T02:11:14.582Z,13.90
2019-05-23T02:13:43.989Z,13.90
2019-05-23T02:16:12.517Z,13.90
2019-05-23T02:18:45.185Z,13.90
2019-05-23T02:21:15.891Z,13.90
2019-05-23T02:23:45.806Z,14.00
2019-05-23T02:26:16.104Z,14.00
2019-05-23T02:28:45.827Z,13.90
2019-05-23T02:31:15.909Z,13.90
2019-05-23T02:33:45.133Z,13.90
2019-05-23T02:36:14.894Z,13.90
2019-05-23T02:38:54.885Z,13.90
2019-05-23T02:41:32.226Z,13.90
2019-05-23T02:44:03.067Z,13.90
2019-05-23T02:46:38.197Z,13.90
2019-05-23T02:49:08.437Z,13.90
2019-05-23T02:51:38.540Z,13.90
2019-05-23T02:54:13.935Z,13.90
2019-05-23T02:56:44.918Z,14.00
2019-05-23T02:59:37.847Z,14.00
2019-05-23T03:02:31.041Z,14.00
2019-05-23T03:05:00.539Z,14.00
2019-05-23T03:07:32.955Z,14.10
2019-05-23T03:10:05.056Z,14.10
2019-05-23T03:12:36.060Z,14.10
2019-05-23T03:15:08.814Z,14.20
2019-05-23T03:17:39.760Z,14.20
2019-05-23T03:20:10.302Z,14.30
2019-05-23T03:22:50.850Z,14.30
2019-05-23T03:25:39.602Z,14.40
2019-05-23T03:28:10.114Z,14.40
2019-05-23T03:30:40.704Z,14.40
2019-05-23T03:33:11.498Z,14.40
2019-05-23T03:35:59.936Z,14.50
2019-05-23T03:38:29.816Z,14.60
2019-05-23T03:40:58.871Z,14.60
2019-05-23T03:43:28.378Z,14.60
2019-05-23T03:46:14.589Z,14.70
2019-05-23T03:48:44.906Z,14.80
2019-05-23T03:51:13.731Z,14.80
2019-05-23T03:53:47.673Z,14.90
2019-05-23T03:56:16.509Z,15.00
2019-05-23T03:58:46.999Z,15.00
2019-05-23T04:01:20.801Z,15.10
2019-05-23T04:03:55.199Z,15.10
2019-05-23T04:06:24.107Z,15.10
2019-05-23T04:08:53.186Z,15.20
2019-05-23T04:11:22.950Z,15.20
2019-05-23T04:13:54.249Z,15.20
2019-05-23T04:16:30.666Z,15.20
2019-05-23T04:19:00.529Z,15.20
2019-05-23T04:21:30.560Z,15.20
2019-05-23T04:23:59.330Z,15.30
2019-05-23T04:26:30.408Z,15.40
2019-05-23T04:28:59.574Z,15.50
2019-05-23T04:31:37.389Z,15.60
2019-05-23T04:34:08.802Z,15.60
2019-05-23T04:36:37.555Z,15.70
2019-05-23T04:39:11.889Z,15.70
2019-05-23T04:41:42.729Z,15.70
2019-05-23T04:44:12.318Z,15.80
2019-05-23T04:46:45.434Z,15.90
2019-05-23T04:49:14.489Z,15.70
2019-05-23T04:51:43.265Z,15.80
2019-05-23T04:54:12.361Z,15.90
2019-05-23T04:56:41.452Z,16.00
2019-05-23T04:59:10.344Z,16.10
2019-05-23T05:01:39.093Z,16.20
2019-05-23T05:04:08.962Z,16.20
2019-05-23T05:06:39.414Z,16.30
2019-05-23T05:09:10.208Z,16.40
2019-05-23T05:11:41.218Z,16.40
2019-05-23T05:14:10.452Z,16.50
2019-05-23T05:16:39.197Z,16.50
2019-05-23T05:19:08.201Z,16.80
2019-05-23T05:21:38.180Z,17.30
2019-05-23T05:24:06.893Z,17.80
2019-05-23T05:26:35.546Z,18.10
2019-05-23T05:29:10.581Z,18.50
2019-05-23T05:31:40.515Z,18.80
2019-05-23T05:34:09.289Z,19.20
2019-05-23T05:36:37.992Z,19.40
2019-05-23T05:39:08.240Z,19.70
2019-05-23T05:41:39.489Z,20.20
2019-05-23T05:44:11.629Z,20.40
2019-05-23T05:46:39.352Z,20.50
2019-05-23T05:49:09.972Z,20.80
2019-05-23T05:51:38.803Z,20.80
2019-05-23T05:54:11.224Z,21.10
2019-05-23T05:56:39.789Z,21.40
2019-05-23T05:59:08.721Z,22.10
2019-05-23T06:01:37.662Z,22.20
2019-05-23T06:04:06.574Z,22.00
2019-05-23T06:06:44.703Z,21.90
2019-05-23T06:09:25.858Z,21.20
2019-05-23T06:11:54.583Z,21.30
2019-05-23T06:14:25.058Z,20.90
2019-05-23T06:16:55.761Z,20.20
2019-05-23T06:19:24.946Z,20.30
2019-05-23T06:21:54.105Z,20.50
2019-05-23T06:24:41.984Z,20.90
2019-05-23T06:26:58.106Z,21.00
2019-05-23T06:29:27.363Z,21.20
2019-05-23T06:31:56.125Z,21.40
2019-05-23T06:34:26.033Z,21.50
2019-05-23T06:36:55.457Z,21.70
2019-05-23T06:39:24.188Z,21.90
2019-05-23T06:41:53.111Z,21.80
2019-05-23T06:44:22.403Z,21.60
2019-05-23T06:46:51.606Z,21.40
2019-05-23T06:49:20.672Z,21.20
2019-05-23T06:51:49.500Z,21.40
2019-05-23T06:54:19.559Z,21.60
2019-05-23T06:56:48.435Z,22.80
2019-05-23T06:59:17.460Z,25.20
2019-05-23T07:01:46.294Z,26.60
2019-05-23T07:04:16.025Z,27.60
2019-05-23T07:06:45.596Z,27.60
2019-05-23T07:09:17.127Z,27.90
2019-05-23T07:11:46.293Z,28.50
2019-05-23T07:14:15.663Z,28.00
2019-05-23T07:16:50.266Z,26.90
2019-05-23T07:19:18.462Z,25.70
2019-05-23T07:21:53.855Z,25.20
2019-05-23T07:24:31.830Z,25.20
2019-05-23T07:27:00.805Z,25.00
2019-05-23T07:29:29.642Z,24.60
2019-05-23T07:31:58.763Z,23.80
2019-05-23T07:34:27.759Z,23.40
2019-05-23T07:36:57.382Z,23.20
2019-05-23T07:39:28.103Z,23.10
2019-05-23T07:41:57.826Z,22.90
2019-05-23T07:44:28.582Z,22.50
2019-05-23T07:46:58.106Z,22.50
2019-05-23T07:49:27.967Z,22.90
2019-05-23T07:51:57.100Z,23.10
2019-05-23T07:54:30.105Z,23.40
2019-05-23T07:57:03.961Z,23.60
2019-05-23T07:59:32.904Z,23.90
2019-05-23T08:02:15.024Z,23.50
2019-05-23T08:04:44.193Z,23.50
2019-05-23T08:07:14.485Z,23.50
2019-05-23T08:09:43.774Z,23.50
2019-05-23T08:12:13.290Z,23.10
2019-05-23T08:14:43.539Z,23.00
2019-05-23T08:17:12.426Z,23.00
2019-05-23T08:19:49.538Z,23.00
2019-05-23T08:22:11.961Z,23.10
2019-05-23T08:24:42.087Z,23.00
2019-05-23T08:27:12.400Z,22.80
2019-05-23T08:29:41.302Z,22.70
2019-05-23T08:32:11.707Z,22.60
2019-05-23T08:34:42.687Z,22.90
2019-05-23T08:37:11.532Z,23.00
2019-05-23T08:39:40.867Z,23.30
2019-05-23T08:42:10.948Z,23.60
2019-05-23T08:44:40.437Z,24.00
2019-05-23T08:47:11.228Z,24.10
2019-05-23T08:49:40.172Z,24.10
2019-05-23T08:52:08.791Z,24.40
2019-05-23T08:54:38.654Z,24.90
2019-05-23T08:57:08.767Z,24.90
2019-05-23T08:59:42.800Z,25.10
2019-05-23T09:02:14.326Z,25.40
2019-05-23T09:05:03.342Z,25.60
2019-05-23T09:07:18.225Z,25.60
2019-05-23T09:09:48.986Z,25.70
2019-05-23T09:12:17.502Z,25.00
2019-05-23T09:14:46.063Z,24.50
2019-05-23T09:17:14.599Z,24.00
2019-05-23T09:19:43.194Z,23.40
2019-05-23T09:22:11.800Z,23.20
2019-05-23T09:24:40.479Z,23.10
2019-05-23T09:27:10.389Z,23.30
2019-05-23T09:29:39.785Z,23.40
2019-05-23T09:32:09.732Z,23.30
2019-05-23T09:34:38.736Z,23.20
2019-05-23T09:37:09.573Z,23.20
2019-05-23T09:39:39.915Z,23.20
2019-05-23T09:42:12.000Z,23.10
2019-05-23T09:44:39.414Z,23.00
2019-05-23T09:47:08.061Z,23.00
2019-05-23T09:49:37.407Z,22.90
2019-05-23T09:52:08.004Z,23.00
2019-05-23T09:54:37.656Z,23.10
2019-05-23T09:57:07.215Z,23.00
2019-05-23T09:59:35.903Z,23.10
2019-05-23T10:02:07.363Z,23.20
2019-05-23T10:04:37.047Z,23.40
2019-05-23T10:07:05.659Z,23.40
2019-05-23T10:09:34.496Z,23.40
2019-05-23T10:12:06.236Z,23.40
2019-05-23T10:14:36.660Z,23.20
2019-05-23T10:17:05.486Z,23.30
2019-05-23T10:19:34.089Z,23.50
2019-05-23T10:22:05.999Z,23.30
2019-05-23T10:24:34.954Z,23.00
2019-05-23T10:27:05.849Z,22.90
2019-05-23T10:29:34.786Z,22.70
2019-05-23T10:32:06.504Z,22.60
2019-05-23T10:34:35.572Z,22.50
2019-05-23T10:37:05.757Z,22.40
2019-05-23T10:39:35.189Z,22.30
2019-05-23T10:42:06.443Z,22.20
2019-05-23T10:44:35.380Z,22.00
2019-05-23T10:47:05.280Z,21.80
2019-05-23T10:49:33.795Z,21.40
2019-05-23T10:52:03.475Z,21.30
2019-05-23T10:54:32.092Z,21.40
2019-05-23T10:57:00.687Z,21.40
2019-05-23T10:59:29.374Z,21.40
2019-05-23T11:01:57.912Z,21.60
2019-05-23T11:04:27.072Z,21.50
2019-05-23T11:06:56.610Z,21.50
2019-05-23T11:09:37.337Z,21.30
2019-05-23T11:11:56.493Z,21.00
2019-05-23T11:14:25.299Z,21.00
2019-05-23T11:16:54.631Z,21.00
2019-05-23T11:19:23.571Z,20.90
2019-05-23T11:21:53.672Z,20.80
2019-05-23T11:24:22.411Z,20.80
2019-05-23T11:26:51.134Z,20.70
2019-05-23T11:29:20.121Z,20.70
2019-05-23T11:31:49.584Z,20.60
2019-05-23T11:34:18.959Z,20.50
2019-05-23T11:36:47.958Z,20.50
2019-05-23T11:39:17.252Z,20.50
2019-05-23T11:41:46.839Z,20.60
2019-05-23T11:44:16.243Z,20.50
2019-05-23T11:46:46.255Z,20.30
2019-05-23T11:49:15.101Z,20.20
2019-05-23T11:51:43.647Z,20.10
2019-05-23T11:54:12.385Z,20.10
2019-05-23T11:56:42.698Z,20.00
2019-05-23T11:59:11.334Z,19.90
2019-05-23T12:01:41.982Z,19.80
2019-05-23T12:04:12.501Z,19.50
2019-05-23T12:06:54.252Z,19.30
2019-05-23T12:09:15.430Z,19.00
2019-05-23T12:11:44.246Z,18.70
2019-05-23T12:14:12.998Z,18.60
2019-05-23T12:16:42.317Z,18.50
2019-05-23T12:19:11.635Z,18.50
2019-05-23T12:21:40.242Z,18.30
2019-05-23T12:24:09.143Z,18.20
2019-05-23T12:26:37.719Z,18.10
2019-05-23T12:29:06.649Z,18.00
2019-05-23T12:31:35.573Z,18.00
2019-05-23T12:34:04.469Z,18.00
2019-05-23T12:36:33.424Z,17.90
2019-05-23T12:39:04.224Z,17.90
2019-05-23T12:41:33.313Z,17.80
2019-05-23T12:44:03.024Z,17.80
2019-05-23T12:46:32.132Z,17.80
2019-05-23T12:49:08.638Z,17.70
2019-05-23T12:51:41.804Z,17.80
2019-05-23T12:54:10.759Z,17.80
2019-05-23T12:56:40.126Z,17.80
2019-05-23T12:59:09.658Z,17.90
2019-05-23T13:01:40.916Z,17.90
2019-05-23T13:04:11.167Z,17.90
2019-05-23T13:06:40.672Z,17.90
2019-05-23T13:09:10.189Z,17.90
2019-05-23T13:11:39.739Z,17.90
2019-05-23T13:14:09.501Z,17.90
2019-05-23T13:16:38.740Z,17.80
2019-05-23T13:19:09.887Z,17.70
2019-05-23T13:21:38.881Z,17.60
2019-05-23T13:24:08.106Z,17.50
2019-05-23T13:26:37.074Z,17.20
2019-05-23T13:29:05.628Z,17.20
2019-05-23T13:31:34.166Z,17.10
2019-05-23T13:34:03.268Z,17.10
2019-05-23T13:36:31.850Z,17.00
2019-05-23T13:39:00.772Z,16.90
2019-05-23T13:41:29.770Z,17.00
2019-05-23T13:43:58.665Z,17.20
2019-05-23T13:46:27.546Z,17.20
2019-05-23T13:48:56.265Z,17.30
2019-05-23T13:51:24.887Z,17.30
2019-05-23T13:53:55.603Z,17.30
2019-05-23T13:56:24.482Z,17.30
2019-05-23T13:58:53.392Z,17.30
2019-05-23T14:01:22.412Z,17.30
2019-05-23T14:03:51.036Z,17.40
2019-05-23T14:06:20.267Z,17.30
2019-05-23T14:08:48.813Z,17.30
2019-05-23T14:11:17.390Z,17.20
2019-05-23T14:13:46.702Z,17.20
2019-05-23T14:16:15.906Z,17.10
2019-05-23T14:18:44.686Z,17.10
2019-05-23T14:21:13.252Z,17.10
2019-05-23T14:23:42.025Z,17.00
2019-05-23T14:26:11.793Z,17.00
2019-05-23T14:28:43.755Z,17.00
2019-05-23T14:31:17.727Z,17.00
2019-05-23T14:34:00.244Z,17.00
2019-05-23T14:36:37.565Z,16.90
2019-05-23T14:39:10.006Z,16.90
2019-05-23T14:41:45.334Z,17.00
2019-05-23T14:44:11.622Z,16.90
2019-05-23T14:46:47.711Z,16.90
2019-05-23T14:49:18.420Z,16.90
2019-05-23T14:51:51.328Z,16.90
2019-05-23T14:54:30.765Z,16.90
2019-05-23T14:56:59.587Z,16.80
2019-05-23T14:59:28.521Z,16.80
2019-05-23T15:01:58.882Z,16.70
2019-05-23T15:04:28.381Z,16.70
2019-05-23T15:06:56.933Z,16.60
2019-05-23T15:09:27.168Z,16.60
2019-05-23T15:11:56.101Z,16.50
2019-05-23T15:14:24.915Z,16.50
2019-05-23T15:16:53.616Z,16.50
2019-05-23T15:19:40.034Z,16.50
2019-05-23T15:21:52.692Z,16.50
2019-05-23T15:24:22.522Z,16.50
2019-05-23T15:26:51.968Z,16.40
2019-05-23T15:29:20.701Z,16.40
2019-05-23T15:32:01.846Z,16.30
2019-05-23T15:34:19.911Z,16.30
2019-05-23T15:36:49.834Z,16.30
2019-05-23T15:39:20.226Z,16.20
2019-05-23T15:41:49.179Z,16.30
2019-05-23T15:44:26.955Z,16.40
2019-05-23T15:46:49.363Z,16.40
2019-05-23T15:49:17.902Z,16.30
2019-05-23T15:51:48.312Z,16.30
2019-05-23T15:54:21.738Z,16.20
2019-05-23T15:56:52.081Z,16.20
2019-05-23T15:59:22.469Z,16.20
2019-05-23T16:02:05.213Z,16.20
2019-05-23T16:04:35.473Z,16.20
2019-05-23T16:07:07.023Z,16.20
2019-05-23T16:09:35.983Z,16.10
2019-05-23T16:12:07.491Z,16.10
2019-05-23T16:14:37.412Z,16.10
2019-05-23T16:17:07.369Z,16.10
2019-05-23T16:19:41.760Z,16.10
2019-05-23T16:22:11.463Z,16.10
2019-05-23T16:24:41.197Z,16.10
2019-05-23T16:27:10.317Z,16.10
2019-05-23T16:29:40.716Z,16.10
2019-05-23T16:32:09.934Z,16.20
2019-05-23T16:34:39.323Z,16.20
2019-05-23T16:37:09.621Z,16.10
2019-05-23T16:39:47.349Z,16.10
2019-05-23T16:42:10.108Z,16.10
2019-05-23T16:44:39.075Z,16.00
2019-05-23T16:47:09.124Z,16.00
2019-05-23T16:49:38.079Z,16.00
2019-05-23T16:52:07.084Z,16.00
2019-05-23T16:54:37.929Z,16.00
2019-05-23T16:57:08.173Z,16.00
2019-05-23T16:59:38.280Z,16.00
2019-05-23T17:02:20.787Z,16.10
2019-05-23T17:05:08.385Z,16.10
2019-05-23T17:07:39.631Z,16.10
2019-05-23T17:10:10.092Z,16.10
2019-05-23T17:12:40.443Z,16.20
2019-05-23T17:15:15.964Z,16.10
2019-05-23T17:18:05.178Z,16.20
2019-05-23T17:20:53.910Z,16.10
2019-05-23T17:23:42.481Z,16.10
2019-05-23T17:26:27.994Z,16.00
2019-05-23T17:28:59.023Z,16.00
2019-05-23T17:31:40.651Z,16.00
2019-05-23T17:34:09.835Z,16.00
2019-05-23T17:36:38.679Z,15.90
2019-05-23T17:39:10.062Z,15.90
2019-05-23T17:41:38.535Z,15.90
2019-05-23T17:44:07.420Z,15.80
2019-05-23T17:46:37.312Z,15.80
2019-05-23T17:49:06.389Z,15.80
2019-05-23T17:51:34.850Z,15.80
2019-05-23T17:54:04.100Z,15.80
2019-05-23T17:56:32.722Z,15.70
2019-05-23T17:59:01.488Z,15.70
2019-05-23T18:01:32.732Z,15.80
2019-05-23T18:04:04.604Z,15.70
2019-05-23T18:06:33.360Z,15.70
2019-05-23T18:09:02.263Z,15.70
2019-05-23T18:11:32.135Z,15.70
2019-05-23T18:14:01.363Z,15.70
2019-05-23T18:16:30.414Z,15.60
2019-05-23T18:19:00.273Z,15.60
2019-05-23T18:21:29.534Z,15.60
2019-05-23T18:23:58.428Z,15.60
2019-05-23T18:26:27.252Z,15.60
2019-05-23T18:28:56.436Z,15.60
2019-05-23T18:31:26.881Z,15.50
2019-05-23T18:33:55.752Z,15.50
2019-05-23T18:36:25.336Z,15.50
2019-05-23T18:38:54.882Z,15.50
2019-05-23T18:41:24.785Z,15.50
2019-05-23T18:43:54.646Z,15.50
2019-05-23T18:46:43.237Z,15.50
2019-05-23T18:49:12.941Z,15.50
2019-05-23T18:51:42.522Z,15.50
2019-05-23T18:54:11.170Z,15.50
2019-05-23T18:56:40.041Z,15.40
2019-05-23T18:59:10.092Z,15.40
2019-05-23T19:01:40.212Z,15.50
2019-05-23T19:04:09.080Z,15.60
2019-05-23T19:06:38.057Z,15.50
2019-05-23T19:09:11.162Z,15.50
2019-05-23T19:11:41.315Z,15.50
2019-05-23T19:14:10.191Z,15.40
2019-05-23T19:16:39.744Z,15.30
2019-05-23T19:19:08.704Z,15.30
2019-05-23T19:21:37.731Z,15.40
2019-05-23T19:24:07.652Z,15.40
2019-05-23T19:26:36.619Z,15.40
2019-05-23T19:29:06.717Z,15.40
2019-05-23T19:31:36.591Z,15.40
2019-05-23T19:34:05.533Z,15.30
2019-05-23T19:36:34.308Z,15.40
2019-05-23T19:39:03.178Z,15.40
2019-05-23T19:41:37.570Z,15.40
2019-05-23T19:44:04.982Z,15.50
2019-05-23T19:46:33.569Z,15.40
2019-05-23T19:49:03.938Z,15.40
2019-05-23T19:51:32.987Z,15.40
2019-05-23T19:54:01.947Z,15.40
2019-05-23T19:56:32.428Z,15.40
2019-05-23T19:59:01.137Z,15.40
2019-05-23T20:01:32.403Z,15.40
2019-05-23T20:04:02.443Z,15.40
2019-05-23T20:06:30.964Z,15.30
2019-05-23T20:09:00.815Z,15.30
2019-05-23T20:11:29.727Z,15.30
2019-05-23T20:13:59.585Z,15.30
2019-05-23T20:16:28.477Z,15.30
2019-05-23T20:18:56.952Z,15.30
2019-05-23T20:21:25.541Z,15.20
2019-05-23T20:23:54.344Z,15.30
2019-05-23T20:26:23.274Z,15.30
2019-05-23T20:28:52.873Z,15.30
2019-05-23T20:31:21.778Z,15.30
2019-05-23T20:33:51.717Z,15.30
2019-05-23T20:36:20.867Z,15.30
2019-05-23T20:38:50.061Z,15.20
2019-05-23T20:41:22.676Z,15.20
2019-05-23T20:43:51.150Z,15.20
2019-05-23T20:46:20.000Z,15.20
2019-05-23T20:48:49.161Z,15.10
2019-05-23T20:51:17.699Z,15.10
2019-05-23T20:53:46.597Z,15.10
2019-05-23T20:56:15.431Z,15.10
2019-05-23T20:58:43.967Z,15.10
2019-05-23T21:01:17.650Z,15.00
2019-05-23T21:03:47.203Z,15.10
2019-05-23T21:06:15.932Z,15.00
2019-05-23T21:08:44.696Z,14.90
2019-05-23T21:11:14.512Z,15.00
2019-05-23T21:13:43.122Z,14.90
2019-05-23T21:16:11.915Z,14.90
2019-05-23T21:18:40.552Z,14.80
2019-05-23T21:21:10.342Z,14.70
2019-05-23T21:23:39.135Z,14.60
2019-05-23T21:26:07.822Z,14.50
2019-05-23T21:28:36.444Z,14.40
2019-05-23T21:31:07.488Z,14.40
2019-05-23T21:33:36.283Z,14.40
2019-05-23T21:36:05.470Z,14.30
2019-05-23T21:38:35.928Z,14.20
2019-05-23T21:41:04.470Z,14.20
2019-05-23T21:43:36.443Z,14.20
2019-05-23T21:46:05.366Z,14.20
2019-05-23T21:48:34.228Z,14.10
2019-05-23T21:51:03.945Z,14.10
2019-05-23T21:53:32.464Z,14.10
2019-05-23T21:56:01.361Z,14.00
2019-05-23T21:58:30.121Z,14.00
2019-05-23T22:01:06.232Z,14.00
2019-05-23T22:03:43.400Z,14.00
2019-05-23T22:06:14.996Z,13.80
2019-05-23T22:08:44.401Z,13.80
2019-05-23T22:11:13.370Z,13.90
2019-05-23T22:13:44.368Z,13.90
2019-05-23T22:16:15.621Z,13.80
2019-05-23T22:18:44.473Z,13.80
2019-05-23T22:21:13.600Z,13.80
2019-05-23T22:23:44.449Z,13.70
2019-05-23T22:26:14.320Z,13.70
2019-05-23T22:28:43.465Z,13.60
2019-05-23T22:31:12.406Z,13.60
2019-05-23T22:33:58.914Z,13.60
2019-05-23T22:36:28.278Z,13.50
2019-05-23T22:38:57.407Z,13.50
2019-05-23T22:41:26.234Z,13.50
2019-05-23T22:43:55.187Z,13.40
2019-05-23T22:46:25.001Z,13.40
2019-05-23T22:49:00.096Z,13.40
2019-05-23T22:51:29.907Z,13.40
2019-05-23T22:53:59.374Z,13.40
2019-05-23T22:56:28.090Z,13.30
2019-05-23T22:58:57.138Z,13.40
2019-05-23T23:01:27.328Z,13.40
2019-05-23T23:04:00.826Z,13.40
2019-05-23T23:06:29.505Z,13.20
2019-05-23T23:08:58.193Z,13.30
2019-05-23T23:11:28.079Z,13.20
2019-05-23T23:13:57.135Z,13.20
2019-05-23T23:16:25.747Z,13.20
2019-05-23T23:18:54.939Z,13.20
2019-05-23T23:21:23.522Z,13.10
2019-05-23T23:23:52.221Z,13.20
2019-05-23T23:26:20.983Z,13.20
2019-05-23T23:28:49.585Z,13.10
2019-05-23T23:31:18.357Z,13.00
2019-05-23T23:33:47.057Z,13.00
2019-05-23T23:36:16.578Z,13.10
2019-05-23T23:38:45.278Z,13.10
2019-05-23T23:41:13.808Z,13.10
2019-05-23T23:43:58.048Z,13.10
2019-05-23T23:46:31.571Z,13.10
2019-05-23T23:49:20.595Z,13.10
2019-05-23T23:52:07.025Z,13.10
2019-05-23T23:54:53.438Z,13.10
2019-05-23T23:57:40.601Z,13.10
